Time;durP1;ratioP1;P1;durP2;ratioP2;P2;SDS_P1;SDS_P2;PMS_P1;PMS_P2;Temp;Humidity;BMP_temperature;BMP_pressure;BME280_temperature;BME280_humidity;BME280_pressure;Samples;Min_cycle;Max_cycle;Signal;HPM_P1;HPM_P2
2023/08/08 00:01:39;;;;;;;3.50;1.80;;;;;;;12.77;100.00;100895.94;6250692;28;20057;-72
2023/08/08 00:04:41;;;;;;;3.58;1.35;;;;;;;12.77;100.00;100893.28;6250075;28;20048;-72
2023/08/08 00:07:42;;;;;;;2.75;1.35;;;;;;;12.73;100.00;100876.78;6250394;28;20060;-73
2023/08/08 00:10:45;;;;;;;4.97;1.50;;;;;;;12.78;100.00;100877.34;6250358;28;20457;-72
2023/08/08 00:13:46;;;;;;;2.72;1.40;;;;;;;12.79;100.00;100875.56;6249802;28;20358;-72
2023/08/08 00:16:47;;;;;;;2.47;1.50;;;;;;;12.77;100.00;100874.81;6250148;28;20080;-73
2023/08/08 00:19:49;;;;;;;5.20;1.45;;;;;;;12.78;100.00;100874.72;6250323;28;20046;-72
2023/08/08 00:22:50;;;;;;;5.50;1.35;;;;;;;12.85;100.00;100878.69;6254789;28;20045;-72
2023/08/08 00:25:53;;;;;;;6.18;1.73;;;;;;;12.77;100.00;100875.66;6287037;28;20048;-72
2023/08/08 00:28:54;;;;;;;2.13;1.30;;;;;;;12.80;100.00;100870.19;6299907;28;20064;-72
2023/08/08 00:31:56;;;;;;;6.00;1.90;;;;;;;12.85;100.00;100865.50;6289685;28;20059;-73
2023/08/08 00:34:57;;;;;;;3.88;1.58;;;;;;;12.83;100.00;100862.09;6299314;28;20045;-72
2023/08/08 00:37:58;;;;;;;1.80;1.25;;;;;;;12.82;100.00;100857.78;6299411;28;20044;-73
2023/08/08 00:41:01;;;;;;;8.05;1.75;;;;;;;12.92;100.00;100866.81;6301923;28;20480;-72
2023/08/08 00:44:03;;;;;;;2.88;1.58;;;;;;;12.91;100.00;100856.38;6302273;28;20040;-72
2023/08/08 00:47:04;;;;;;;11.30;2.08;;;;;;;12.84;100.00;100860.31;6293350;28;20060;-72
2023/08/08 00:50:07;;;;;;;4.72;1.60;;;;;;;12.84;100.00;100855.03;6304047;28;20056;-73
2023/08/08 00:53:08;;;;;;;4.18;1.75;;;;;;;12.80;100.00;100845.59;6297636;28;20055;-72
2023/08/08 00:56:12;;;;;;;3.50;1.63;;;;;;;12.81;100.00;100844.66;6295079;28;20051;-72
2023/08/08 00:59:16;;;;;;;4.20;1.73;;;;;;;12.90;100.00;100842.34;6303937;28;20071;-72
2023/08/08 01:02:18;;;;;;;5.38;1.90;;;;;;;12.82;100.00;100846.38;6303630;28;20049;-73
2023/08/08 01:05:19;;;;;;;2.35;1.73;;;;;;;12.79;100.00;100839.50;6303208;28;20055;-74
2023/08/08 01:08:26;;;;;;;6.85;1.35;;;;;;;12.70;100.00;100838.25;6303598;28;20053;-75
2023/08/08 01:11:31;;;;;;;7.72;1.48;;;;;;;12.75;100.00;100834.50;6303394;28;20052;-74
2023/08/08 01:14:35;;;;;;;3.80;1.60;;;;;;;12.75;100.00;100832.72;6303212;28;20060;-74
2023/08/08 01:17:37;;;;;;;5.15;1.92;;;;;;;12.72;100.00;100838.19;6303205;28;20048;-74
2023/08/08 01:20:44;;;;;;;2.83;1.75;;;;;;;12.68;100.00;100826.97;6303141;28;20360;-75
2023/08/08 01:23:53;;;;;;;4.93;1.98;;;;;;;12.69;100.00;100831.28;6286136;28;20048;-77
2023/08/08 01:26:56;;;;;;;3.67;1.85;;;;;;;12.71;100.00;100828.56;6278389;28;20060;-75
2023/08/08 01:29:57;;;;;;;4.03;1.90;;;;;;;12.75;100.00;100816.88;6278321;28;20049;-75
2023/08/08 01:32:59;;;;;;;2.88;1.50;;;;;;;12.77;100.00;100827.34;6278138;28;20056;-75
2023/08/08 01:36:06;;;;;;;3.40;1.60;;;;;;;12.66;100.00;100818.28;6277698;28;20179;-75
2023/08/08 01:39:12;;;;;;;4.82;2.83;;;;;;;12.76;100.00;100818.56;6278068;28;20059;-75
2023/08/08 01:42:16;;;;;;;1.67;1.33;;;;;;;12.74;100.00;100801.16;6277847;28;20045;-77
2023/08/08 01:45:18;;;;;;;2.55;1.77;;;;;;;12.78;100.00;100803.53;6277529;28;20049;-75
2023/08/08 01:48:20;;;;;;;4.85;1.60;;;;;;;12.78;100.00;100798.25;6277725;28;20049;-74
2023/08/08 01:51:21;;;;;;;4.03;1.90;;;;;;;12.74;100.00;100803.81;6277228;28;20053;-74
2023/08/08 01:54:23;;;;;;;2.78;1.73;;;;;;;12.81;100.00;100803.34;6277138;28;20081;-75
2023/08/08 01:57:25;;;;;;;3.53;2.53;;;;;;;12.73;100.00;100812.66;6277651;28;20049;-77
2023/08/08 02:00:27;;;;;;;4.05;1.88;;;;;;;12.73;100.00;100800.31;6277323;28;20353;-75
2023/08/08 02:03:28;;;;;;;3.47;2.00;;;;;;;12.86;100.00;100793.34;6277093;28;20076;-74
2023/08/08 02:06:30;;;;;;;5.72;2.33;;;;;;;12.80;100.00;100800.78;6277047;28;20060;-77
2023/08/08 02:09:31;;;;;;;5.70;1.95;;;;;;;12.79;100.00;100807.00;6277243;28;20048;-77
2023/08/08 02:12:34;;;;;;;2.83;1.88;;;;;;;12.83;100.00;100790.88;6277216;28;20053;-76
2023/08/08 02:15:35;;;;;;;4.38;2.33;;;;;;;12.84;100.00;100789.94;6276809;28;20053;-75
2023/08/08 02:18:40;;;;;;;6.55;2.08;;;;;;;12.95;100.00;100794.56;6277171;28;20052;-75
2023/08/08 02:21:41;;;;;;;2.20;1.75;;;;;;;12.93;100.00;100788.53;6276873;28;20049;-76
2023/08/08 02:24:43;;;;;;;5.97;2.53;;;;;;;12.89;100.00;100781.75;6276646;28;20052;-75
2023/08/08 02:27:46;;;;;;;4.78;2.20;;;;;;;12.89;100.00;100777.31;6276818;28;20053;-76
2023/08/08 02:30:47;;;;;;;4.68;1.90;;;;;;;12.96;100.00;100777.78;6285116;28;20055;-75
2023/08/08 02:33:50;;;;;;;8.48;2.47;;;;;;;13.02;100.00;100779.19;6290348;28;20055;-76
2023/08/08 02:36:51;;;;;;;8.05;2.00;;;;;;;13.03;100.00;100779.09;6292871;28;20052;-75
2023/08/08 02:39:52;;;;;;;5.10;2.53;;;;;;;13.05;100.00;100781.66;6301501;28;20048;-74
2023/08/08 02:42:55;;;;;;;6.15;2.08;;;;;;;13.04;100.00;100780.81;6301057;28;20357;-75
2023/08/08 02:45:56;;;;;;;5.88;2.50;;;;;;;13.06;100.00;100775.41;6300684;28;20060;-75
2023/08/08 02:48:58;;;;;;;3.35;1.98;;;;;;;13.03;100.00;100786.16;6301175;28;20053;-76
2023/08/08 02:51:59;;;;;;;3.30;1.90;;;;;;;13.09;100.00;100783.16;6289080;28;20437;-75
2023/08/08 02:55:02;;;;;;;2.67;1.88;;;;;;;13.18;100.00;100785.22;6297579;28;20044;-75
2023/08/08 02:58:05;;;;;;;3.38;2.17;;;;;;;13.12;100.00;100775.03;6300839;28;20186;-78
2023/08/08 03:01:06;;;;;;;4.30;2.30;;;;;;;13.19;100.00;100771.91;6301200;28;20143;-75
2023/08/08 03:04:08;;;;;;;6.13;1.58;;;;;;;13.30;100.00;100779.16;6299223;28;20071;-75
2023/08/08 03:07:09;;;;;;;5.90;1.83;;;;;;;13.25;100.00;100775.97;6300775;28;20048;-78
2023/08/08 03:10:11;;;;;;;4.10;2.17;;;;;;;13.31;100.00;100767.69;6300573;28;20604;-74
2023/08/08 03:13:14;;;;;;;5.22;2.42;;;;;;;13.34;100.00;100771.88;6300601;28;20079;-75
2023/08/08 03:16:15;;;;;;;2.78;1.98;;;;;;;13.26;100.00;100761.81;6300382;28;20052;-77
2023/08/08 03:19:17;;;;;;;4.32;2.20;;;;;;;13.35;100.00;100765.66;6300388;28;20452;-75
2023/08/08 03:22:18;;;;;;;4.32;2.40;;;;;;;13.40;100.00;100763.59;6300510;28;20053;-75
2023/08/08 03:25:20;;;;;;;5.55;2.13;;;;;;;13.36;100.00;100762.09;6298076;28;20055;-75
2023/08/08 03:28:22;;;;;;;11.00;2.67;;;;;;;13.37;100.00;100761.16;6292017;28;20474;-75
2023/08/08 03:31:25;;;;;;;6.47;2.28;;;;;;;13.40;100.00;100756.53;6300288;28;20052;-75
2023/08/08 03:34:27;;;;;;;3.97;1.90;;;;;;;13.45;100.00;100753.59;6300226;28;20052;-75
2023/08/08 03:37:28;;;;;;;4.18;2.40;;;;;;;13.47;100.00;100753.47;6300233;28;20048;-75
2023/08/08 03:40:31;;;;;;;5.45;2.10;;;;;;;13.43;100.00;100751.03;6300455;28;20052;-74
2023/08/08 03:43:34;;;;;;;6.85;2.00;;;;;;;13.52;100.00;100757.50;6299610;28;20338;-76
2023/08/08 03:46:35;;;;;;;5.22;1.98;;;;;;;13.40;100.00;100764.44;6300066;28;20052;-74
2023/08/08 03:49:36;;;;;;;5.22;1.80;;;;;;;13.41;100.00;100747.66;6300097;28;20063;-76
2023/08/08 03:52:38;;;;;;;3.80;2.15;;;;;;;13.49;100.00;100752.44;6299832;28;20326;-75
2023/08/08 03:55:39;;;;;;;5.57;2.70;;;;;;;13.30;100.00;100757.19;6299931;28;20049;-76
2023/08/08 03:58:42;;;;;;;4.97;2.30;;;;;;;13.33;100.00;100749.94;6299931;28;20056;-75
2023/08/08 04:01:43;;;;;;;4.05;1.98;;;;;;;13.37;100.00;100747.94;6300085;28;20048;-75
2023/08/08 04:04:45;;;;;;;2.85;2.15;;;;;;;13.31;100.00;100746.56;6299360;28;20048;-77
2023/08/08 04:07:46;;;;;;;3.45;1.98;;;;;;;13.35;100.00;100742.78;6300056;28;20056;-76
2023/08/08 04:10:48;;;;;;;3.63;2.13;;;;;;;13.37;100.00;100740.88;6299870;28;20044;-74
2023/08/08 04:13:50;;;;;;;5.78;1.92;;;;;;;13.35;100.00;100742.78;6299568;28;20137;-76
2023/08/08 04:16:52;;;;;;;3.63;1.88;;;;;;;13.40;100.00;100739.84;6303733;28;20052;-79
2023/08/08 04:19:53;;;;;;;9.73;2.63;;;;;;;13.39;100.00;100722.28;6264403;28;20060;-75
2023/08/08 04:22:55;;;;;;;4.63;2.60;;;;;;;13.38;100.00;100737.28;6255014;28;20050;-75
2023/08/08 04:25:56;;;;;;;6.82;2.33;;;;;;;13.40;100.00;100727.47;6254610;28;20049;-76
2023/08/08 04:28:59;;;;;;;6.25;2.60;;;;;;;13.47;100.00;100732.34;6254900;28;20456;-75
2023/08/08 04:32:00;;;;;;;4.90;2.28;;;;;;;13.42;100.00;100725.56;6279069;28;20056;-76
2023/08/08 04:35:02;;;;;;;4.68;2.13;;;;;;;13.45;100.00;100720.09;6292318;28;20056;-75
2023/08/08 04:38:04;;;;;;;5.10;2.35;;;;;;;13.42;100.00;100730.00;6304173;28;20059;-77
2023/08/08 04:41:05;;;;;;;6.75;2.08;;;;;;;13.43;100.00;100714.06;6296111;28;20437;-72
2023/08/08 04:44:08;;;;;;;5.78;2.03;;;;;;;13.49;100.00;100714.59;6269272;28;20196;-77
2023/08/08 04:47:10;;;;;;;8.05;2.85;;;;;;;13.49;100.00;100711.97;6267245;28;20049;-77
2023/08/08 04:50:11;;;;;;;3.50;2.38;;;;;;;13.50;100.00;100716.31;6277068;28;20112;-77
2023/08/08 04:53:13;;;;;;;5.53;2.72;;;;;;;13.54;100.00;100702.81;6279065;28;20056;-76
2023/08/08 04:56:14;;;;;;;5.35;2.72;;;;;;;13.58;100.00;100706.94;6293608;28;20048;-75
2023/08/08 04:59:17;;;;;;;1.70;1.60;;;;;;;13.63;100.00;100709.28;6303692;28;20441;-74
2023/08/08 05:02:18;;;;;;;4.93;2.20;;;;;;;13.67;100.00;100710.75;6295339;28;20055;-74
2023/08/08 05:05:20;;;;;;;4.05;2.25;;;;;;;13.67;100.00;100716.03;6284530;28;20041;-77
2023/08/08 05:08:21;;;;;;;6.88;2.22;;;;;;;13.73;100.00;100713.00;6294050;28;20052;-74
2023/08/08 05:11:23;;;;;;;3.92;2.13;;;;;;;13.73;100.00;100714.78;6303365;28;20056;-75
2023/08/08 05:14:25;;;;;;;6.20;2.42;;;;;;;13.73;100.00;100712.16;6303232;28;20053;-78
2023/08/08 05:17:30;;;;;;;4.68;2.35;;;;;;;13.69;100.00;100717.63;6303257;28;20059;-75
2023/08/08 05:20:31;;;;;;;2.58;1.80;;;;;;;13.74;100.00;100708.56;6303219;28;20345;-75
2023/08/08 05:23:33;;;;;;;5.28;2.30;;;;;;;13.74;100.00;100711.19;6302793;28;20060;-75
2023/08/08 05:26:34;;;;;;;5.85;2.17;;;;;;;13.74;100.00;100704.13;6301988;28;20353;-75
2023/08/08 05:29:38;;;;;;;6.78;2.45;;;;;;;13.74;100.00;100701.47;6303629;28;20048;-77
2023/08/08 05:32:39;;;;;;;4.18;2.13;;;;;;;13.81;100.00;100708.03;6302780;28;20052;-76
2023/08/08 05:35:41;;;;;;;5.00;2.17;;;;;;;13.91;100.00;100701.19;6302663;28;20349;-75
2023/08/08 05:38:42;;;;;;;6.35;2.08;;;;;;;13.95;100.00;100700.03;6294691;28;20055;-76
2023/08/08 05:41:43;;;;;;;9.52;3.15;;;;;;;13.93;100.00;100707.19;6278207;28;20430;-76
2023/08/08 05:44:46;;;;;;;3.50;2.08;;;;;;;14.02;100.00;100704.88;6278266;28;20045;-75
2023/08/08 05:47:48;;;;;;;4.28;1.90;;;;;;;13.97;100.00;100710.47;6284261;28;20059;-77
2023/08/08 05:50:49;;;;;;;7.03;2.38;;;;;;;14.05;100.00;100708.16;6288781;28;20368;-75
2023/08/08 05:53:50;;;;;;;7.72;2.03;;;;;;;14.01;100.00;100713.75;6281796;28;20056;-79
2023/08/08 05:56:52;;;;;;;3.95;2.70;;;;;;;14.05;100.00;100704.69;6296502;28;20048;-76
2023/08/08 05:59:55;;;;;;;5.75;2.20;;;;;;;14.05;100.00;100718.72;6301552;28;20048;-77
2023/08/08 06:02:56;;;;;;;9.15;1.95;;;;;;;14.11;100.00;100715.66;6301036;28;20569;-77
2023/08/08 06:05:58;;;;;;;7.05;2.65;;;;;;;14.21;100.00;100711.44;6300219;28;20048;-76
2023/08/08 06:08:59;;;;;;;9.73;2.45;;;;;;;14.32;100.00;100716.00;6301427;28;20045;-78
2023/08/08 06:12:00;;;;;;;6.75;2.03;;;;;;;14.36;100.00;100716.63;6302022;28;20575;-75
2023/08/08 06:15:04;;;;;;;5.63;2.25;;;;;;;14.40;100.00;100713.66;6301560;28;20057;-76
2023/08/08 06:18:06;;;;;;;4.43;1.98;;;;;;;14.47;100.00;100716.72;6301720;28;20056;-75
2023/08/08 06:21:07;;;;;;;3.35;2.13;;;;;;;14.53;100.00;100716.31;6301906;28;20579;-76
2023/08/08 06:24:09;;;;;;;9.85;2.75;;;;;;;14.51;100.00;100710.28;6301403;28;20088;-74
2023/08/08 06:27:10;;;;;;;4.25;2.05;;;;;;;14.55;100.00;100719.69;6301720;28;20052;-75
2023/08/08 06:30:13;;;;;;;3.15;1.95;;;;;;;14.62;100.00;100717.47;6301491;28;20052;-76
2023/08/08 06:33:14;;;;;;;9.13;2.03;;;;;;;14.63;100.00;100720.00;6301546;28;20055;-76
2023/08/08 06:36:16;;;;;;;7.97;2.03;;;;;;;14.70;100.00;100715.13;6277869;28;20045;-77
2023/08/08 06:39:19;;;;;;;4.30;1.75;;;;;;;14.78;100.00;100714.59;6264149;28;20053;-75
2023/08/08 06:42:20;;;;;;;9.70;2.13;;;;;;;14.80;100.00;100707.38;6263288;28;20353;-75
2023/08/08 06:45:23;;;;;;;6.13;1.92;;;;;;;14.86;100.00;100717.53;6263069;28;20049;-77
2023/08/08 06:48:25;;;;;;;4.70;1.92;;;;;;;14.94;100.00;100715.16;6263948;28;20041;-76
2023/08/08 06:51:26;;;;;;;5.68;1.90;;;;;;;15.00;100.00;100705.94;6262967;28;20056;-75
2023/08/08 06:54:29;;;;;;;8.82;2.20;;;;;;;15.06;100.00;100711.63;6263756;28;20469;-75
2023/08/08 06:57:34;;;;;;;7.25;1.88;;;;;;;15.11;100.00;100700.72;6262167;28;20049;-73
2023/08/08 07:00:36;;;;;;;4.20;1.98;;;;;;;15.13;100.00;100712.88;6262287;28;20053;-74
2023/08/08 07:03:38;;;;;;;4.53;1.52;;;;;;;15.21;100.00;100699.06;6260628;28;20046;-72
2023/08/08 07:06:39;;;;;;;7.10;2.25;;;;;;;15.27;100.00;100703.09;6293970;22;20438;-73
2023/08/08 07:09:41;;;;;;;4.40;1.60;;;;;;;15.27;100.00;100706.59;6264110;28;20461;-73
2023/08/08 07:12:42;;;;;;;4.65;1.70;;;;;;;15.31;100.00;100707.22;6252346;28;20068;-74
2023/08/08 07:15:45;;;;;;;3.80;1.35;;;;;;;15.36;100.00;100702.41;6275725;28;20060;-72
2023/08/08 07:18:47;;;;;;;2.72;1.15;;;;;;;15.37;100.00;100704.09;6275671;28;20056;-74
2023/08/08 07:21:48;;;;;;;2.08;1.08;;;;;;;15.45;100.00;100699.09;6275848;28;20052;-73
2023/08/08 07:24:49;;;;;;;5.47;1.23;;;;;;;15.51;100.00;100698.63;6275427;28;20052;-73
2023/08/08 07:27:51;;;;;;;4.78;1.45;;;;;;;15.56;100.00;100690.31;6275445;28;20045;-78
2023/08/08 07:30:54;;;;;;;5.93;1.10;;;;;;;15.57;100.00;100703.44;6275599;28;20048;-72
2023/08/08 07:33:55;;;;;;;6.15;1.85;;;;;;;15.59;100.00;100700.69;6275103;28;20045;-73
2023/08/08 07:36:56;;;;;;;9.52;1.52;;;;;;;15.58;100.00;100702.50;6275594;28;20045;-73
2023/08/08 07:39:58;;;;;;;3.47;1.20;;;;;;;15.50;100.00;100696.09;6274956;28;20534;-73
2023/08/08 07:42:59;;;;;;;7.13;1.25;;;;;;;15.52;100.00;100697.66;6275448;28;20301;-74
2023/08/08 07:46:02;;;;;;;1.88;1.17;;;;;;;15.55;100.00;100688.63;6274930;28;20076;-74
2023/08/08 07:49:04;;;;;;;4.93;1.48;;;;;;;15.62;100.00;100693.34;6276209;28;20049;-73
2023/08/08 07:52:06;;;;;;;3.17;1.42;;;;;;;15.64;100.00;100698.56;6283158;28;20478;-72
2023/08/08 07:55:09;;;;;;;3.63;1.25;;;;;;;15.66;100.00;100688.69;6283418;28;20448;-72
2023/08/08 07:58:10;;;;;;;4.50;1.13;;;;;;;15.70;100.00;100683.03;6283436;28;20048;-73
2023/08/08 08:01:13;;;;;;;1.30;0.75;;;;;;;15.78;100.00;100684.28;6283677;28;20059;-73
2023/08/08 08:04:15;;;;;;;2.75;1.05;;;;;;;15.79;100.00;100680.66;6282949;28;20432;-73
2023/08/08 08:07:17;;;;;;;3.63;1.13;;;;;;;15.78;100.00;100685.13;6283312;28;20045;-72
2023/08/08 08:10:18;;;;;;;7.20;1.30;;;;;;;15.70;100.00;100679.56;6280346;28;20053;-72
2023/08/08 08:13:19;;;;;;;6.47;1.33;;;;;;;15.75;100.00;100676.56;6283216;28;20044;-74
2023/08/08 08:16:22;;;;;;;2.10;0.93;;;;;;;15.74;100.00;100670.41;6283097;28;20045;-73
2023/08/08 08:19:24;;;;;;;0.88;0.60;;;;;;;15.74;100.00;100678.38;6283148;28;20052;-73
2023/08/08 08:22:25;;;;;;;2.78;1.00;;;;;;;15.65;100.00;100668.47;6283411;28;20057;-72
2023/08/08 08:25:26;;;;;;;3.67;1.73;;;;;;;15.57;100.00;100666.34;6282932;28;20056;-72
2023/08/08 08:28:28;;;;;;;1.70;1.00;;;;;;;15.56;100.00;100669.97;6283285;28;20049;-73
2023/08/08 08:31:30;;;;;;;2.90;1.77;;;;;;;15.60;100.00;100666.13;6282991;28;20056;-73
2023/08/08 08:34:32;;;;;;;3.42;0.88;;;;;;;15.66;100.00;100659.56;6282676;28;20053;-73
2023/08/08 08:37:34;;;;;;;3.47;1.15;;;;;;;15.69;100.00;100665.47;6283078;28;20044;-74
2023/08/08 08:40:41;;;;;;;3.10;0.70;;;;;;;15.78;100.00;100655.97;6283269;28;20048;-72
2023/08/08 08:43:42;;;;;;;4.40;1.10;;;;;;;15.77;100.00;100658.75;6282850;28;20048;-73
2023/08/08 08:46:48;;;;;;;2.00;1.27;;;;;;;15.79;100.00;100662.13;6282968;28;20051;-73
2023/08/08 08:49:50;;;;;;;1.40;0.80;;;;;;;15.73;100.00;100655.50;6283184;28;20088;-72
2023/08/08 08:52:55;;;;;;;2.70;1.63;;;;;;;15.80;100.00;100664.63;6282680;28;20060;-73
2023/08/08 08:55:58;;;;;;;2.85;0.95;;;;;;;15.85;100.00;100664.28;6282532;28;20056;-73
2023/08/08 08:59:01;;;;;;;2.72;0.95;;;;;;;15.92;100.00;100661.06;6282710;28;20053;-75
2023/08/08 09:02:04;;;;;;;1.30;0.70;;;;;;;16.02;100.00;100655.88;6280809;28;20352;-74
2023/08/08 09:05:07;;;;;;;2.92;0.88;;;;;;;16.08;100.00;100657.22;6278340;28;20049;-75
2023/08/08 09:08:09;;;;;;;1.15;0.85;;;;;;;16.05;100.00;100660.13;6278900;28;20151;-73
2023/08/08 09:11:10;;;;;;;2.95;1.25;;;;;;;15.97;100.00;100660.69;6278593;28;20062;-73
2023/08/08 09:14:19;;;;;;;3.83;0.93;;;;;;;15.95;100.00;100674.09;6278544;28;20056;-73
2023/08/08 09:17:21;;;;;;;4.00;1.10;;;;;;;15.90;100.00;100656.84;6278583;28;20049;-73
2023/08/08 09:20:23;;;;;;;4.57;0.93;;;;;;;15.90;100.00;100663.00;6278782;28;20045;-73
2023/08/08 09:23:24;;;;;;;4.30;1.67;;;;;;;15.85;100.00;100662.50;6278184;28;20071;-72
2023/08/08 09:26:25;;;;;;;3.40;0.95;;;;;;;15.91;100.00;100656.72;6278000;28;20352;-72
2023/08/08 09:29:27;;;;;;;1.75;0.68;;;;;;;16.06;100.00;100661.78;6278624;28;20440;-73
2023/08/08 09:32:31;;;;;;;3.92;0.90;;;;;;;16.24;100.00;100653.25;6278020;28;20049;-73
2023/08/08 09:35:32;;;;;;;1.90;1.00;;;;;;;16.48;100.00;100644.31;6278049;28;20045;-73
2023/08/08 09:38:34;;;;;;;2.10;1.00;;;;;;;16.50;100.00;100639.75;6278042;28;20428;-72
2023/08/08 09:41:35;;;;;;;0.80;0.65;;;;;;;16.47;100.00;100655.88;6278295;28;20048;-73
2023/08/08 09:44:40;;;;;;;0.95;0.63;;;;;;;16.41;100.00;100643.97;6277562;28;20064;-71
2023/08/08 09:47:43;;;;;;;3.70;0.70;;;;;;;16.41;100.00;100646.63;6277978;28;20076;-76
2023/08/08 09:50:45;;;;;;;4.72;1.17;;;;;;;16.48;100.00;100639.84;6277991;28;20064;-76
2023/08/08 09:53:47;;;;;;;1.15;0.60;;;;;;;16.69;100.00;100641.75;6277588;28;20052;-77
2023/08/08 09:56:49;;;;;;;2.67;0.60;;;;;;;16.90;100.00;100629.44;6277760;28;20131;-77
2023/08/08 09:59:51;;;;;;;1.35;0.70;;;;;;;17.14;100.00;100625.72;6277507;28;20053;-78
2023/08/08 10:02:55;;;;;;;1.38;0.80;;;;;;;17.20;100.00;100635.84;6277543;28;20059;-76
2023/08/08 10:05:56;;;;;;;2.45;0.85;;;;;;;16.98;100.00;100628.78;6276876;28;20356;-79
2023/08/08 10:08:58;;;;;;;1.90;0.90;;;;;;;16.88;100.00;100634.00;6277513;28;20052;-78
2023/08/08 10:12:00;;;;;;;2.03;0.80;;;;;;;16.80;100.00;100633.78;6277163;28;20059;-77
2023/08/08 10:15:03;;;;;;;3.35;0.63;;;;;;;16.98;100.00;100616.34;6276479;28;20463;-74
2023/08/08 10:18:06;;;;;;;3.35;0.77;;;;;;;17.20;100.00;100626.06;6277009;28;20344;-74
2023/08/08 10:21:09;;;;;;;0.95;0.50;;;;;;;17.36;100.00;100630.09;6277233;28;20049;-79
2023/08/08 10:24:11;;;;;;;1.95;0.55;;;;;;;17.46;100.00;100631.84;6276682;28;20056;-75
2023/08/08 10:27:15;;;;;;;4.90;0.70;;;;;;;17.49;100.00;100631.59;6276874;28;20462;-75
2023/08/08 10:30:16;;;;;;;1.83;0.52;;;;;;;17.56;100.00;100628.41;6276804;28;20056;-74
2023/08/08 10:33:21;;;;;;;2.50;0.75;;;;;;;17.62;100.00;100620.78;6276831;28;20053;-78
2023/08/08 10:36:23;;;;;;;2.55;0.75;;;;;;;17.68;100.00;100633.53;6276616;28;20049;-77
2023/08/08 10:39:25;;;;;;;1.45;0.52;;;;;;;17.73;100.00;100631.38;6276612;28;20053;-76
2023/08/08 10:42:30;;;;;;;2.03;0.80;;;;;;;17.68;100.00;100630.03;6276539;28;20055;-75
2023/08/08 10:45:32;;;;;;;2.53;0.60;;;;;;;17.62;100.00;100626.09;6276086;28;20069;-78
2023/08/08 10:48:35;;;;;;;2.15;0.52;;;;;;;17.70;100.00;100631.59;6276517;28;20056;-78
2023/08/08 10:51:38;;;;;;;4.10;0.60;;;;;;;17.72;100.00;100616.38;6276249;28;20053;-77
2023/08/08 10:54:53;;;;;;;0.30;0.30;;;;;;;17.71;100.00;100613.81;6275931;28;20049;-76
2023/08/08 10:57:56;;;;;;;1.95;0.35;;;;;;;17.64;100.00;100626.78;6276227;28;20417;-75
2023/08/08 11:00:58;;;;;;;0.57;0.43;;;;;;;17.75;100.00;100615.28;6276440;28;20073;-76
2023/08/08 11:04:01;;;;;;;1.00;0.40;;;;;;;17.80;100.00;100636.97;6275665;28;20056;-77
2023/08/08 11:07:04;;;;;;;1.25;0.50;;;;;;;17.92;100.00;100612.00;6276076;28;20045;-73
2023/08/08 11:10:07;;;;;;;1.52;0.60;;;;;;;18.11;100.00;100613.06;6275844;28;20049;-77
2023/08/08 11:13:09;;;;;;;0.43;0.30;;;;;;;18.22;100.00;100613.84;6276061;28;20053;-76
2023/08/08 11:16:11;;;;;;;0.90;0.50;;;;;;;18.15;100.00;100609.16;6275395;28;20053;-77
2023/08/08 11:19:14;;;;;;;0.65;0.30;;;;;;;18.13;100.00;100598.69;6275610;28;20349;-78
2023/08/08 11:22:15;;;;;;;0.77;0.50;;;;;;;18.10;100.00;100614.06;6275720;28;20365;-78
2023/08/08 11:25:16;;;;;;;1.85;0.30;;;;;;;18.05;100.00;100613.63;6274308;28;20056;-76
2023/08/08 11:28:18;;;;;;;0.88;0.40;;;;;;;18.07;100.00;100620.47;6275454;28;20040;-76
2023/08/08 11:31:21;;;;;;;2.60;0.50;;;;;;;18.01;100.00;100629.00;6275538;28;20053;-76
2023/08/08 11:34:24;;;;;;;2.00;0.65;;;;;;;17.98;100.00;100629.25;6275233;28;20056;-74
2023/08/08 11:37:25;;;;;;;0.65;0.38;;;;;;;18.01;100.00;100623.66;6275175;28;20056;-75
2023/08/08 11:40:29;;;;;;;2.30;0.50;;;;;;;17.98;100.00;100622.09;6275271;28;20452;-75
2023/08/08 11:43:30;;;;;;;2.75;0.73;;;;;;;17.93;100.00;100624.31;6274780;28;20179;-77
2023/08/08 11:46:32;;;;;;;0.65;0.32;;;;;;;17.91;100.00;100615.66;6275157;28;20056;-75
2023/08/08 11:49:41;;;;;;;1.77;0.50;;;;;;;17.94;100.00;100619.84;6275163;28;20056;-76
2023/08/08 11:52:45;;;;;;;0.75;0.45;;;;;;;17.89;100.00;100622.91;6275204;28;20040;-78
2023/08/08 11:55:47;;;;;;;4.47;0.50;;;;;;;17.79;100.00;100629.16;6274964;28;20049;-78
2023/08/08 11:58:51;;;;;;;1.10;0.40;;;;;;;17.66;100.00;100640.78;6275313;28;20044;-75
2023/08/08 12:01:52;;;;;;;0.73;0.30;;;;;;;17.65;100.00;100640.94;6274776;28;20045;-75
2023/08/08 12:04:55;;;;;;;2.60;0.70;;;;;;;17.95;100.00;100642.81;6274691;28;20433;-74
2023/08/08 12:07:56;;;;;;;0.95;0.50;;;;;;;18.00;100.00;100637.94;6274981;28;20049;-76
2023/08/08 12:11:01;;;;;;;2.92;0.60;;;;;;;18.01;100.00;100634.31;6274812;28;20053;-75
2023/08/08 12:14:03;;;;;;;1.48;0.38;;;;;;;18.12;100.00;100633.38;6274749;28;20049;-77
2023/08/08 12:17:04;;;;;;;1.63;0.50;;;;;;;18.13;100.00;100638.56;6274614;28;20045;-74
2023/08/08 12:20:09;;;;;;;1.00;0.50;;;;;;;18.08;100.00;100630.16;6274840;28;20456;-75
2023/08/08 12:23:10;;;;;;;1.38;0.40;;;;;;;17.95;100.00;100643.66;6274426;28;20090;-78
2023/08/08 12:26:12;;;;;;;0.98;0.50;;;;;;;17.43;100.00;100652.50;6274519;28;20053;-77
2023/08/08 12:29:14;;;;;;;2.03;0.70;;;;;;;16.51;100.00;100662.66;6274427;28;20098;-77
2023/08/08 12:32:15;;;;;;;2.28;0.57;;;;;;;15.88;100.00;100637.56;6274780;28;20056;-76
2023/08/08 12:35:18;;;;;;;2.08;0.52;;;;;;;15.63;100.00;100636.78;6274186;28;20076;-75
2023/08/08 12:38:19;;;;;;;5.10;0.60;;;;;;;15.37;100.00;100637.91;6279318;28;20045;-75
2023/08/08 12:41:21;;;;;;;3.95;0.85;;;;;;;15.27;100.00;100658.09;6279206;28;20045;-74
2023/08/08 12:44:23;;;;;;;0.82;0.55;;;;;;;15.31;100.00;100654.25;6278728;28;20080;-75
2023/08/08 12:47:24;;;;;;;1.13;0.60;;;;;;;15.38;100.00;100666.06;6278979;28;20056;-74
2023/08/08 12:50:28;;;;;;;4.47;0.57;;;;;;;15.34;100.00;100665.44;6279415;28;20356;-74
2023/08/08 12:53:29;;;;;;;0.77;0.63;;;;;;;15.45;100.00;100654.06;6278442;28;20360;-77
2023/08/08 12:56:31;;;;;;;1.58;0.60;;;;;;;15.84;100.00;100649.34;6278589;28;20095;-73
2023/08/08 12:59:32;;;;;;;0.63;0.63;;;;;;;16.29;100.00;100644.09;6278811;28;20045;-75
2023/08/08 13:02:35;;;;;;;0.70;0.43;;;;;;;16.65;100.00;100637.66;6278468;28;20056;-73
2023/08/08 13:05:37;;;;;;;1.20;0.40;;;;;;;16.89;100.00;100637.50;6278421;28;20049;-73
2023/08/08 13:08:39;;;;;;;0.55;0.50;;;;;;;17.05;100.00;100658.34;6278340;28;20045;-73
2023/08/08 13:11:40;;;;;;;2.92;1.15;;;;;;;16.95;100.00;100648.47;6291480;22;20095;-79
2023/08/08 13:14:42;;;;;;;1.90;0.73;;;;;;;17.08;100.00;100628.88;6228499;28;20057;-82
2023/08/08 13:17:43;;;;;;;0.95;0.60;;;;;;;17.38;100.00;100631.66;6246939;28;20049;-79
2023/08/08 13:20:46;;;;;;;4.10;0.65;;;;;;;17.41;100.00;100650.00;6246182;28;20050;-76
2023/08/08 13:23:47;;;;;;;2.42;0.52;;;;;;;17.27;100.00;100634.38;6228673;28;20054;-75
2023/08/08 13:26:49;;;;;;;0.77;0.68;;;;;;;17.39;100.00;100630.66;6229277;28;20050;-75
2023/08/08 13:29:50;;;;;;;4.18;0.77;;;;;;;17.64;100.00;100637.44;6228828;28;20050;-77
2023/08/08 13:32:51;;;;;;;2.10;0.55;;;;;;;17.81;100.00;100638.69;6228968;28;20501;-79
2023/08/08 13:35:54;;;;;;;0.93;0.60;;;;;;;17.74;100.00;100634.84;6228785;28;20439;-78
2023/08/08 13:38:55;;;;;;;4.88;0.70;;;;;;;17.57;100.00;100633.59;6228657;28;20076;-78
2023/08/08 13:41:57;;;;;;;0.80;0.40;;;;;;;17.59;100.00;100649.44;6228721;28;20053;-78
2023/08/08 13:44:58;;;;;;;3.00;0.63;;;;;;;17.38;100.00;100647.59;6228292;28;20050;-77
2023/08/08 13:48:00;;;;;;;0.88;0.38;;;;;;;17.03;100.00;100665.59;6227727;28;20129;-80
2023/08/08 13:51:03;;;;;;;0.60;0.52;;;;;;;16.84;100.00;100675.03;6228186;28;20362;-75
2023/08/08 13:54:05;;;;;;;0.88;0.30;;;;;;;16.59;100.00;100677.97;6228267;28;20104;-76
2023/08/08 13:57:06;;;;;;;0.68;0.40;;;;;;;16.22;100.00;100670.25;6228295;28;20443;-77